Time;durP1;ratioP1;P1;durP2;ratioP2;P2;SDS_P1;SDS_P2;PMS_P1;PMS_P2;Temp;Humidity;BMP_temperature;BMP_pressure;BME280_temperature;BME280_humidity;BME280_pressure;Samples;Min_cycle;Max_cycle;Signal;HPM_P1;HPM_P2
2023/06/02 00:01:02;;;;;;;8.97;6.10;;;;;;;19.79;nan;99252.09;5021366;28;20481;-77
2023/06/02 00:03:33;;;;;;;6.43;5.27;;;;;;;19.80;nan;99264.44;5022452;28;21208;-77
2023/06/02 00:06:05;;;;;;;7.20;5.57;;;;;;;19.80;nan;99259.13;5023530;28;21004;-78
2023/06/02 00:08:32;;;;;;;8.70;6.03;;;;;;;19.75;nan;99262.28;5024062;28;20598;-78
2023/06/02 00:10:58;;;;;;;7.37;5.47;;;;;;;19.72;nan;99259.13;5022211;28;20481;-78
2023/06/02 00:13:25;;;;;;;8.13;5.50;;;;;;;19.65;nan;99262.38;5022762;28;20497;-78
2023/06/02 00:15:50;;;;;;;7.33;6.27;;;;;;;19.62;nan;99257.38;5023618;28;20474;-77
2023/06/02 00:18:16;;;;;;;8.93;5.53;;;;;;;19.60;nan;99264.72;5023434;28;20480;-78
2023/06/02 00:20:42;;;;;;;6.40;5.43;;;;;;;19.56;nan;99263.38;5022829;28;20225;-78
2023/06/02 00:23:08;;;;;;;7.60;5.93;;;;;;;19.51;nan;99263.03;5022921;28;20235;-78
2023/06/02 00:25:35;;;;;;;7.10;5.83;;;;;;;19.46;nan;99260.03;5022888;28;20518;-78
2023/06/02 00:28:00;;;;;;;7.77;5.77;;;;;;;19.39;nan;99264.34;5023602;28;20540;-78
2023/06/02 00:30:27;;;;;;;11.00;5.70;;;;;;;19.32;nan;99255.34;5023588;28;20465;-78
2023/06/02 00:32:53;;;;;;;5.60;4.70;;;;;;;19.30;nan;99254.66;5022753;28;20237;-78
2023/06/02 00:35:18;;;;;;;8.90;6.63;;;;;;;19.29;nan;99250.34;5021717;28;20561;-77
2023/06/02 00:37:43;;;;;;;15.63;6.70;;;;;;;19.29;nan;99255.66;5021208;28;20498;-78
2023/06/02 00:40:09;;;;;;;7.97;5.57;;;;;;;19.29;nan;99255.66;5021760;28;20348;-78
2023/06/02 00:42:35;;;;;;;9.97;6.70;;;;;;;19.27;nan;99257.66;5025190;28;20596;-78
2023/06/02 00:45:01;;;;;;;11.47;6.33;;;;;;;19.24;nan;99248.16;5023501;28;20414;-77
2023/06/02 00:47:26;;;;;;;11.50;5.80;;;;;;;19.24;nan;99258.81;5026463;28;21001;-77
2023/06/02 00:49:52;;;;;;;10.30;6.13;;;;;;;19.23;nan;99254.50;5025275;28;20246;-78
2023/06/02 00:52:18;;;;;;;8.40;6.20;;;;;;;19.20;nan;99252.97;5026147;28;20610;-77
2023/06/02 00:54:44;;;;;;;8.43;5.93;;;;;;;19.21;nan;99254.63;5025862;28;20212;-78
2023/06/02 00:57:10;;;;;;;13.23;7.50;;;;;;;19.17;nan;99261.28;5026037;28;20832;-78
2023/06/02 00:59:39;;;;;;;10.27;6.40;;;;;;;19.16;nan;99262.28;5024132;28;20474;-78
2023/06/02 01:02:04;;;;;;;8.50;6.23;;;;;;;19.17;nan;99260.44;5024205;28;20223;-77
2023/06/02 01:04:31;;;;;;;11.20;5.67;;;;;;;19.16;nan;99256.13;5024905;28;20484;-77
2023/06/02 01:07:02;;;;;;;10.03;6.13;;;;;;;19.12;nan;99252.94;5023809;28;20242;-77
2023/06/02 01:09:30;;;;;;;10.60;6.23;;;;;;;19.09;nan;99265.72;5024113;28;20441;-77
2023/06/02 01:11:56;;;;;;;8.53;5.83;;;;;;;19.01;nan;99264.72;5025301;28;20938;-78
2023/06/02 01:14:22;;;;;;;13.90;7.73;;;;;;;18.96;nan;99267.03;5027552;28;20219;-77
2023/06/02 01:16:49;;;;;;;8.30;6.13;;;;;;;18.93;nan;99262.03;5026195;28;21012;-77
2023/06/02 01:19:20;;;;;;;8.13;5.97;;;;;;;18.93;nan;99270.00;5026179;28;21132;-78
2023/06/02 01:21:57;;;;;;;13.77;7.07;;;;;;;18.87;nan;99261.81;5026323;28;20488;-77
2023/06/02 01:24:30;;;;;;;11.70;6.77;;;;;;;18.83;nan;99269.28;5023899;28;20481;-78
2023/06/02 01:26:56;;;;;;;10.40;6.47;;;;;;;18.82;nan;99269.44;5024689;28;21340;-77
2023/06/02 01:29:21;;;;;;;11.77;6.40;;;;;;;18.78;nan;99274.25;5024338;28;20472;-77
2023/06/02 01:31:54;;;;;;;7.30;6.20;;;;;;;18.76;nan;99276.22;5024497;28;20293;-78
2023/06/02 01:34:40;;;;;;;7.20;5.10;;;;;;;18.71;nan;99268.72;5022955;28;20464;-77
2023/06/02 01:37:07;;;;;;;8.70;7.10;;;;;;;18.70;nan;99275.00;5023808;28;20548;-77
2023/06/02 01:39:33;;;;;;;10.67;5.30;;;;;;;18.68;nan;99269.00;5024001;28;20479;-78
2023/06/02 01:42:02;;;;;;;10.50;6.40;;;;;;;18.66;nan;99264.81;5020173;28;20467;-77
2023/06/02 01:44:27;;;;;;;6.53;5.77;;;;;;;18.64;nan;99269.50;5021565;28;20584;-77
2023/06/02 01:46:53;;;;;;;9.80;5.83;;;;;;;18.62;nan;99268.81;5022091;28;20481;-78
2023/06/02 01:49:19;;;;;;;11.40;5.37;;;;;;;18.59;nan;99269.97;5020836;28;20215;-77
2023/06/02 01:51:45;;;;;;;6.33;5.60;;;;;;;18.55;nan;99274.78;5020308;28;20504;-78
2023/06/02 01:54:10;;;;;;;7.80;5.23;;;;;;;18.50;nan;99270.91;5019996;28;20297;-78
2023/06/02 01:56:36;;;;;;;6.67;5.97;;;;;;;18.46;nan;99269.53;5022163;28;20731;-77
2023/06/02 01:59:03;;;;;;;9.17;6.00;;;;;;;18.43;nan;99272.53;5018854;28;20223;-77
2023/06/02 02:01:29;;;;;;;6.67;5.10;;;;;;;18.40;nan;99270.19;5019046;28;20517;-78
2023/06/02 02:03:54;;;;;;;7.80;5.40;;;;;;;18.38;nan;99272.16;5022452;28;20587;-77
2023/06/02 02:06:30;;;;;;;8.37;6.13;;;;;;;18.37;nan;99273.16;5019475;28;20654;-77
2023/06/02 02:08:59;;;;;;;7.90;5.43;;;;;;;18.30;nan;99268.44;5019157;28;20283;-77
2023/06/02 02:11:26;;;;;;;8.10;5.50;;;;;;;18.27;nan;99270.56;5017859;28;20817;-77
2023/06/02 02:13:51;;;;;;;9.17;5.60;;;;;;;18.27;nan;99276.72;5019083;28;20477;-77
2023/06/02 02:16:17;;;;;;;8.43;5.67;;;;;;;18.29;nan;99274.75;5018029;28;20469;-77
2023/06/02 02:18:43;;;;;;;7.70;5.33;;;;;;;18.29;nan;99273.91;5016320;28;20280;-77
2023/06/02 02:21:10;;;;;;;7.23;5.43;;;;;;;18.26;nan;99277.72;5016903;28;20214;-77
2023/06/02 02:23:35;;;;;;;9.30;5.80;;;;;;;18.24;nan;99277.03;5015883;28;20468;-77
2023/06/02 02:26:01;;;;;;;7.10;5.10;;;;;;;18.21;nan;99276.53;5018080;28;20473;-77
2023/06/02 02:28:27;;;;;;;8.27;5.83;;;;;;;18.19;nan;99274.00;5018666;28;20488;-77
2023/06/02 02:30:52;;;;;;;8.07;5.70;;;;;;;18.16;nan;99282.28;5020229;28;20216;-77
2023/06/02 02:33:19;;;;;;;5.83;5.03;;;;;;;18.13;nan;99275.47;5018490;28;20207;-77
2023/06/02 02:35:45;;;;;;;7.07;5.68;;;;;;;18.09;nan;99276.78;5020099;28;20431;-77
2023/06/02 02:38:11;;;;;;;8.37;5.97;;;;;;;18.06;nan;99281.53;5025460;28;20677;-77
2023/06/02 02:40:36;;;;;;;8.63;5.77;;;;;;;18.04;nan;99280.88;5030011;28;20226;-78
2023/06/02 02:43:02;;;;;;;7.20;5.50;;;;;;;18.01;nan;99283.81;5028336;28;20215;-77
2023/06/02 02:45:27;;;;;;;6.47;4.73;;;;;;;17.98;nan;99287.63;5028104;28;20221;-77
2023/06/02 02:47:53;;;;;;;8.63;5.20;;;;;;;17.95;nan;99287.09;5027362;28;20239;-78
2023/06/02 02:50:18;;;;;;;7.50;5.00;;;;;;;17.91;nan;99284.75;5028824;28;20300;-77
2023/06/02 02:52:44;;;;;;;8.30;6.03;;;;;;;17.89;nan;99277.91;5026913;28;20226;-77
2023/06/02 02:55:11;;;;;;;8.27;4.50;;;;;;;17.87;nan;99285.19;5030071;28;20924;-77
2023/06/02 02:57:37;;;;;;;11.63;5.20;;;;;;;17.82;nan;99285.69;5027624;28;20468;-77
2023/06/02 03:00:06;;;;;;;7.60;6.30;;;;;;;17.79;nan;99277.16;5041504;28;20280;-77
2023/06/02 03:02:32;;;;;;;8.90;6.40;;;;;;;17.77;nan;99290.56;5041894;28;20461;-77
2023/06/02 03:04:57;;;;;;;9.60;4.53;;;;;;;17.74;nan;99293.53;5025199;28;20471;-77
2023/06/02 03:07:24;;;;;;;6.37;4.60;;;;;;;17.69;nan;99290.50;5023225;28;20262;-77
2023/06/02 03:09:50;;;;;;;8.57;5.43;;;;;;;17.66;nan;99290.75;5025725;28;20282;-77
2023/06/02 03:12:16;;;;;;;9.63;4.87;;;;;;;17.63;nan;99296.38;5024967;28;20486;-77
2023/06/02 03:14:42;;;;;;;6.20;5.20;;;;;;;17.61;nan;99295.72;5024731;28;20472;-78
2023/06/02 03:17:08;;;;;;;8.70;5.00;;;;;;;17.59;nan;99287.88;5026464;28;20226;-77
2023/06/02 03:19:35;;;;;;;11.20;5.70;;;;;;;17.56;nan;99288.19;5024342;28;20741;-77
2023/06/02 03:22:02;;;;;;;7.80;5.27;;;;;;;17.53;nan;99295.63;5025553;28;20471;-77
2023/06/02 03:24:30;;;;;;;7.27;4.60;;;;;;;17.50;nan;99291.47;5023052;28;20222;-77
2023/06/02 03:26:59;;;;;;;7.03;5.10;;;;;;;17.46;nan;99285.59;5023927;28;20855;-77
2023/06/02 03:29:24;;;;;;;8.63;4.90;;;;;;;17.40;nan;99299.47;5023433;28;20536;-77
2023/06/02 03:31:53;;;;;;;5.80;4.40;;;;;;;17.37;nan;99297.13;5025750;28;20217;-77
2023/06/02 03:34:20;;;;;;;11.33;7.60;;;;;;;17.35;nan;99292.94;5027903;28;20875;-77
2023/06/02 03:36:51;;;;;;;11.37;5.57;;;;;;;17.30;nan;99290.72;5008329;28;20523;-77
2023/06/02 03:39:16;;;;;;;9.30;5.40;;;;;;;17.15;nan;99303.66;5030826;23;21078;-79
2023/06/02 03:41:43;;;;;;;8.30;6.40;;;;;;;17.13;nan;99304.78;5006465;28;20467;-79
2023/06/02 03:44:09;;;;;;;9.27;4.73;;;;;;;17.09;nan;99311.38;5031405;28;20487;-79
2023/06/02 03:46:35;;;;;;;8.70;5.43;;;;;;;17.09;nan;99311.38;5033675;28;20770;-80
2023/06/02 03:49:02;;;;;;;5.57;4.30;;;;;;;17.11;nan;99306.75;5034626;28;20613;-79
2023/06/02 03:51:28;;;;;;;7.17;4.67;;;;;;;17.13;nan;99310.09;5012446;28;20878;-79
2023/06/02 03:53:55;;;;;;;6.17;4.67;;;;;;;17.15;nan;99313.47;5011776;28;20902;-79
2023/06/02 03:56:22;;;;;;;7.47;4.80;;;;;;;17.18;nan;99321.94;5012292;28;20996;-79
2023/06/02 03:58:48;;;;;;;7.20;4.50;;;;;;;17.21;nan;99318.16;5012413;28;20507;-79
2023/06/02 04:01:17;;;;;;;7.40;5.40;;;;;;;17.22;nan;99322.47;5012130;28;20550;-79
2023/06/02 04:03:43;;;;;;;10.53;5.27;;;;;;;17.20;nan;99313.81;5029416;28;20472;-79
2023/06/02 04:06:12;;;;;;;6.30;4.83;;;;;;;17.19;nan;99323.59;5013322;28;20525;-79
2023/06/02 04:08:39;;;;;;;7.17;5.20;;;;;;;17.21;nan;99326.13;5011878;28;20482;-79
2023/06/02 04:11:04;;;;;;;8.03;5.13;;;;;;;17.19;nan;99333.41;5012247;28;20467;-79
2023/06/02 04:13:30;;;;;;;7.30;4.93;;;;;;;17.13;nan;99328.69;5011244;28;20294;-79
2023/06/02 04:15:58;;;;;;;7.70;4.87;;;;;;;17.03;nan;99329.53;5011905;28;20977;-79
2023/06/02 04:18:23;;;;;;;9.82;4.75;;;;;;;17.00;nan;99335.13;5012653;28;20469;-79
2023/06/02 04:20:49;;;;;;;13.60;5.43;;;;;;;16.95;nan;99333.91;5011250;28;20233;-79
2023/06/02 04:23:14;;;;;;;6.63;5.40;;;;;;;16.96;nan;99340.91;5013786;28;20216;-79
2023/06/02 04:25:40;;;;;;;8.20;5.53;;;;;;;16.97;nan;99335.44;5011952;28;20553;-80
2023/06/02 04:28:07;;;;;;;12.20;5.23;;;;;;;16.96;nan;99344.38;5012880;28;20472;-80
2023/06/02 04:30:36;;;;;;;10.63;5.50;;;;;;;17.03;nan;99355.25;5012801;28;21003;-80
2023/06/02 04:33:03;;;;;;;7.50;5.25;;;;;;;17.12;nan;99351.72;5013437;28;20209;-80
2023/06/02 04:35:29;;;;;;;9.55;5.28;;;;;;;17.22;nan;99351.69;5015626;28;20206;-80
2023/06/02 04:37:56;;;;;;;7.50;5.97;;;;;;;17.31;nan;99353.47;5032523;28;20238;-80
2023/06/02 04:40:21;;;;;;;8.43;5.33;;;;;;;17.42;nan;99360.41;5013353;28;20557;-80
2023/06/02 04:42:47;;;;;;;6.30;5.40;;;;;;;17.57;nan;99352.75;5013633;28;20607;-79
2023/06/02 04:45:13;;;;;;;7.33;5.13;;;;;;;17.63;nan;99353.03;5013018;28;20233;-80
2023/06/02 04:47:42;;;;;;;10.00;5.20;;;;;;;17.79;nan;99352.38;5012764;28;20217;-79
2023/06/02 04:50:09;;;;;;;8.30;5.23;;;;;;;18.00;nan;99356.56;5014299;28;20599;-79
2023/06/02 04:52:42;;;;;;;8.67;5.80;;;;;;;18.42;nan;99359.44;5011882;28;20464;-79
2023/06/02 04:55:10;;;;;;;7.53;4.80;;;;;;;18.88;nan;99356.66;5008887;28;20672;-79
2023/06/02 04:57:37;;;;;;;7.90;4.93;;;;;;;19.33;nan;99358.19;5004772;28;20497;-79
2023/06/02 05:00:05;;;;;;;12.37;6.70;;;;;;;19.79;nan;99354.22;5008835;28;20852;-79
2023/06/02 05:02:31;;;;;;;6.50;5.33;;;;;;;20.13;nan;99350.63;5005424;28;20215;-79
2023/06/02 05:04:57;;;;;;;8.00;6.10;;;;;;;20.15;nan;99348.63;5009014;28;20564;-79
2023/06/02 05:07:23;;;;;;;9.70;5.63;;;;;;;20.36;nan;99350.81;5006352;28;20459;-79
2023/06/02 05:09:48;;;;;;;10.87;5.70;;;;;;;20.65;nan;99352.13;5006553;28;20533;-79
2023/06/02 05:12:16;;;;;;;8.00;5.73;;;;;;;20.86;nan;99351.59;5010672;28;20307;-80
2023/06/02 05:14:42;;;;;;;10.23;6.33;;;;;;;21.17;nan;99357.03;5009378;28;20472;-80
2023/06/02 05:17:08;;;;;;;7.77;5.23;;;;;;;21.33;nan;99358.81;5009408;28;20595;-79
2023/06/02 05:19:35;;;;;;;10.70;6.57;;;;;;;21.08;nan;99352.72;5010554;28;20563;-80
2023/06/02 05:22:02;;;;;;;10.90;5.53;;;;;;;20.79;nan;99364.78;5011565;28;20426;-79
2023/06/02 05:24:29;;;;;;;13.80;5.90;;;;;;;20.41;nan;99367.13;5008588;28;20488;-79
2023/06/02 05:26:54;;;;;;;9.00;6.20;;;;;;;20.04;nan;99368.44;5008451;28;20526;-80
2023/06/02 05:29:20;;;;;;;10.10;6.60;;;;;;;20.02;nan;99367.75;5011720;28;21165;-79
2023/06/02 05:31:46;;;;;;;10.03;6.63;;;;;;;20.18;nan;99363.47;5011448;28;20651;-80
2023/06/02 05:34:12;;;;;;;9.63;6.30;;;;;;;20.37;nan;99359.63;5011420;28;20663;-80
2023/06/02 05:36:37;;;;;;;11.93;5.80;;;;;;;20.83;nan;99360.78;5013034;28;20219;-79
2023/06/02 05:39:04;;;;;;;6.03;4.97;;;;;;;21.26;nan;99360.53;5028885;28;20760;-79
2023/06/02 05:41:29;;;;;;;7.97;4.87;;;;;;;21.68;nan;99359.34;5013015;28;20463;-80
2023/06/02 05:43:56;;;;;;;8.77;5.57;;;;;;;22.04;nan;99356.97;5011366;28;20306;-79
2023/06/02 05:46:24;;;;;;;7.73;5.47;;;;;;;22.33;nan;99361.63;5012018;28;20467;-80
2023/06/02 05:48:50;;;;;;;6.50;5.90;;;;;;;22.66;nan;99356.00;5011565;28;20264;-80
2023/06/02 05:51:17;;;;;;;7.63;5.93;;;;;;;22.83;nan;99367.38;5012490;28;20497;-80
2023/06/02 05:53:42;;;;;;;7.70;6.20;;;;;;;23.02;nan;99360.69;5013020;28;20478;-80
2023/06/02 05:56:08;;;;;;;8.90;4.83;;;;;;;23.19;nan;99354.94;4992981;28;20205;-80
2023/06/02 05:58:38;;;;;;;7.27;5.37;;;;;;;23.41;nan;99363.91;5012264;28;20677;-80
2023/06/02 06:01:04;;;;;;;9.70;6.23;;;;;;;23.62;nan;99365.81;5013624;28;20286;-80
2023/06/02 06:03:29;;;;;;;7.73;5.80;;;;;;;23.77;nan;99356.97;5013733;28;20443;-80
2023/06/02 06:05:55;;;;;;;8.80;5.90;;;;;;;23.79;nan;99365.63;5013253;28;20289;-80
2023/06/02 06:08:20;;;;;;;7.40;5.10;;;;;;;23.85;nan;99365.72;5013301;28;20234;-80
2023/06/02 06:10:46;;;;;;;7.70;4.93;;;;;;;23.95;nan;99359.19;5013757;28;20459;-80
2023/06/02 06:13:14;;;;;;;6.60;4.90;;;;;;;24.21;nan;99361.31;5011406;28;20242;-80
2023/06/02 06:15:40;;;;;;;7.13;6.43;;;;;;;24.54;nan;99364.34;5013053;28;20509;-80
2023/06/02 06:18:05;;;;;;;8.40;4.93;;;;;;;24.79;nan;99359.38;5014184;28;20232;-80
2023/06/02 06:20:31;;;;;;;7.13;4.87;;;;;;;25.02;nan;99358.28;5014566;28;20225;-80
2023/06/02 06:22:57;;;;;;;6.00;5.27;;;;;;;25.29;nan;99357.44;5016438;28;20213;-80
2023/06/02 06:25:24;;;;;;;5.00;4.50;;;;;;;25.35;nan;99363.88;5013607;28;20551;-80
2023/06/02 06:27:50;;;;;;;7.67;6.23;;;;;;;25.43;nan;99369.06;5013459;28;20470;-80
2023/06/02 06:30:19;;;;;;;7.30;6.50;;;;;;;25.54;nan;99370.38;5015174;28;20477;-80
2023/06/02 06:32:45;;;;;;;7.50;5.03;;;;;;;25.63;nan;99371.88;5013852;28;20421;-80
2023/06/02 06:35:11;;;;;;;7.18;5.35;;;;;;;25.63;nan;99371.00;5015003;28;20415;-80
2023/06/02 06:37:37;;;;;;;13.17;5.70;;;;;;;25.43;nan;99371.75;5021972;28;20204;-80
2023/06/02 06:40:02;;;;;;;9.00;6.40;;;;;;;25.46;nan;99375.91;5020045;28;20859;-80
2023/06/02 06:42:29;;;;;;;10.03;6.00;;;;;;;25.66;nan;99373.31;5015284;28;20763;-80
2023/06/02 06:45:00;;;;;;;7.27;4.67;;;;;;;25.82;nan;99371.09;5014532;28;20466;-80
2023/06/02 06:47:26;;;;;;;7.40;5.20;;;;;;;25.86;nan;99376.94;5015450;28;20591;-80
2023/06/02 06:49:52;;;;;;;5.50;4.83;;;;;;;25.82;nan;99384.56;5012450;28;20288;-80
2023/06/02 06:52:18;;;;;;;6.60;5.50;;;;;;;25.86;nan;99378.78;5014924;28;20517;-80
2023/06/02 06:54:43;;;;;;;10.73;4.93;;;;;;;26.01;nan;99379.47;4999288;28;20962;-85
2023/06/02 06:57:10;;;;;;;5.67;4.70;;;;;;;26.22;nan;99379.31;5021118;28;20215;-84
2023/06/02 06:59:36;;;;;;;8.10;5.00;;;;;;;26.30;nan;99380.13;5020105;28;20222;-84
2023/06/02 07:02:01;;;;;;;6.30;5.20;;;;;;;26.26;nan;99379.72;5019247;28;20436;-85
2023/06/02 07:04:27;;;;;;;7.70;5.90;;;;;;;26.16;nan;99373.91;5017079;28;21058;-84
2023/06/02 07:06:54;;;;;;;7.97;6.00;;;;;;;26.06;nan;99374.31;5017416;28;20210;-83
2023/06/02 07:09:19;;;;;;;8.67;6.17;;;;;;;26.07;nan;99380.50;5015719;28;20588;-85
2023/06/02 07:11:45;;;;;;;12.17;4.90;;;;;;;26.05;nan;99372.63;5018624;28;20701;-83
2023/06/02 07:14:10;;;;;;;6.03;5.33;;;;;;;26.13;nan;99375.13;5013563;28;20220;-84
2023/06/02 07:16:35;;;;;;;9.60;5.87;;;;;;;26.08;nan;99391.06;5016709;28;20489;-83
2023/06/02 07:19:01;;;;;;;7.70;6.17;;;;;;;26.18;nan;99378.03;5013433;28;20225;-84
2023/06/02 07:21:26;;;;;;;9.70;5.80;;;;;;;26.30;nan;99385.50;5015057;28;20216;-85
2023/06/02 07:23:52;;;;;;;7.47;5.37;;;;;;;26.31;nan;99379.09;5014066;28;20839;-84
2023/06/02 07:26:17;;;;;;;8.30;4.83;;;;;;;26.26;nan;99388.63;5015511;28;20230;-82
2023/06/02 07:28:43;;;;;;;9.40;5.03;;;;;;;26.22;nan;99381.16;5016993;28;20718;-85
2023/06/02 07:31:08;;;;;;;8.50;6.00;;;;;;;25.96;nan;99381.94;5013847;28;20577;-83
2023/06/02 07:33:34;;;;;;;10.13;6.43;;;;;;;25.83;nan;99380.84;5015891;28;20242;-84
2023/06/02 07:35:59;;;;;;;7.80;5.73;;;;;;;25.89;nan;99378.38;5016222;28;20378;-85
2023/06/02 07:38:24;;;;;;;6.17;5.43;;;;;;;25.82;nan;99389.94;5013704;28;20777;-84
2023/06/02 07:40:50;;;;;;;9.00;5.90;;;;;;;25.90;nan;99391.66;5015131;28;20414;-84
2023/06/02 07:43:16;;;;;;;8.50;5.90;;;;;;;26.10;nan;99394.38;5013871;28;20215;-82
2023/06/02 07:45:41;;;;;;;8.00;5.50;;;;;;;26.31;nan;99389.88;5013972;28;20236;-83
2023/06/02 07:48:06;;;;;;;7.00;6.10;;;;;;;26.44;nan;99395.28;5016844;28;20224;-84
2023/06/02 07:50:32;;;;;;;7.80;5.93;;;;;;;26.52;nan;99388.88;5008782;28;20220;-82
2023/06/02 07:52:57;;;;;;;5.83;4.53;;;;;;;26.48;nan;99397.34;5010533;28;20599;-85
2023/06/02 07:55:24;;;;;;;6.03;5.40;;;;;;;26.38;nan;99396.09;5022213;28;20857;-82
2023/06/02 07:57:50;;;;;;;6.63;5.07;;;;;;;26.27;nan;99398.38;5019532;28;20319;-83
2023/06/02 08:00:21;;;;;;;6.23;5.43;;;;;;;26.21;nan;99396.47;5020730;28;20463;-83
2023/06/02 08:02:47;;;;;;;9.00;6.57;;;;;;;26.24;nan;99390.69;5019967;28;20602;-82
2023/06/02 08:05:16;;;;;;;7.00;5.43;;;;;;;26.13;nan;99383.22;5017400;28;20436;-85
2023/06/02 08:07:42;;;;;;;5.87;5.30;;;;;;;26.00;nan;99385.88;5013794;28;20459;-82
2023/06/02 08:10:08;;;;;;;6.70;5.00;;;;;;;25.97;nan;99384.41;5015848;28;20452;-83
2023/06/02 08:12:34;;;;;;;9.50;5.93;;;;;;;25.88;nan;99393.72;5016537;28;20982;-83
2023/06/02 08:15:00;;;;;;;7.63;4.90;;;;;;;25.80;nan;99389.28;5019885;28;20511;-82
2023/06/02 08:17:29;;;;;;;8.37;4.73;;;;;;;25.69;nan;99384.50;5019881;28;20211;-82
2023/06/02 08:19:58;;;;;;;7.80;5.20;;;;;;;25.52;nan;99394.78;5019859;28;21104;-85
2023/06/02 08:22:26;;;;;;;8.77;5.80;;;;;;;25.44;nan;99386.03;5018526;28;20493;-83
2023/06/02 08:24:53;;;;;;;5.87;5.23;;;;;;;25.24;nan;99389.44;5018173;28;20463;-84
2023/06/02 08:27:20;;;;;;;7.47;5.97;;;;;;;25.16;nan;99376.16;5020606;28;20429;-82
2023/06/02 08:29:46;;;;;;;7.17;5.70;;;;;;;25.16;nan;99384.22;5017878;28;20569;-85
2023/06/02 08:32:12;;;;;;;9.27;5.50;;;;;;;25.15;nan;99382.59;5019684;28;20434;-83
2023/06/02 08:34:41;;;;;;;9.90;5.20;;;;;;;24.98;nan;99384.72;5019366;28;20418;-83
2023/06/02 08:37:09;;;;;;;8.10;5.67;;;;;;;24.78;nan;99384.56;5020524;28;20458;-85
2023/06/02 08:39:34;;;;;;;8.60;5.60;;;;;;;24.58;nan;99380.91;5018892;28;20482;-84
2023/06/02 08:42:01;;;;;;;7.80;5.80;;;;;;;24.46;nan;99376.03;5020974;28;20618;-85
2023/06/02 08:44:28;;;;;;;10.20;5.53;;;;;;;24.47;nan;99372.34;5019106;28;20247;-84
2023/06/02 08:46:55;;;;;;;9.00;6.27;;;;;;;24.48;nan;99374.00;5018752;28;20446;-82
2023/06/02 08:49:22;;;;;;;14.03;7.83;;;;;;;24.50;nan;99377.31;5020584;28;20857;-84
2023/06/02 08:51:51;;;;;;;7.50;6.07;;;;;;;24.61;nan;99373.28;5017565;28;20461;-84
2023/06/02 08:54:18;;;;;;;7.40;5.17;;;;;;;24.82;nan;99369.72;5020001;28;20723;-82
2023/06/02 08:56:44;;;;;;;6.43;5.80;;;;;;;24.88;nan;99373.50;5017956;28;20471;-83
2023/06/02 08:59:09;;;;;;;8.07;5.73;;;;;;;24.76;nan;99383.09;5018338;28;20710;-83
2023/06/02 09:01:34;;;;;;;11.60;6.37;;;;;;;24.54;nan;99382.31;5020229;28;20200;-82
2023/06/02 09:04:00;;;;;;;8.57;5.40;;;;;;;24.57;nan;99376.53;5022604;28;20677;-81
2023/06/02 09:06:26;;;;;;;7.50;5.53;;;;;;;24.51;nan;99380.84;5022588;28;20210;-81
2023/06/02 09:09:01;;;;;;;5.93;5.20;;;;;;;24.41;nan;99375.78;5020760;28;20220;-83
2023/06/02 09:11:28;;;;;;;6.23;5.63;;;;;;;24.41;nan;99373.09;5020880;28;20473;-84
2023/06/02 09:13:55;;;;;;;7.37;4.33;;;;;;;24.40;nan;99374.09;5020661;28;20447;-82
2023/06/02 09:16:22;;;;;;;11.07;5.00;;;;;;;24.57;nan;99374.69;5023718;28;20549;-84
2023/06/02 09:18:56;;;;;;;6.97;6.00;;;;;;;24.83;nan;99376.75;5023402;28;20457;-83
2023/06/02 09:21:32;;;;;;;6.03;5.13;;;;;;;24.97;nan;99376.84;5018200;28;21053;-82
2023/06/02 09:23:59;;;;;;;5.97;5.37;;;;;;;24.92;nan;99375.59;5017813;28;20495;-84
2023/06/02 09:26:27;;;;;;;7.73;5.83;;;;;;;24.91;nan;99373.91;5019411;28;20466;-84
2023/06/02 09:29:04;;;;;;;9.63;5.80;;;;;;;24.70;nan;99376.66;5018620;28;20501;-83
2023/06/02 09:31:45;;;;;;;6.27;5.73;;;;;;;24.62;nan;99369.56;5020098;28;20458;-83
2023/06/02 09:34:12;;;;;;;7.57;5.70;;;;;;;24.64;nan;99372.06;5021042;28;20671;-83
2023/06/02 09:36:38;;;;;;;6.77;6.00;;;;;;;24.65;nan;99379.91;5019222;28;20792;-83
2023/06/02 09:39:05;;;;;;;6.67;5.50;;;;;;;24.76;nan;99369.66;5055760;22;20922;-79
2023/06/02 09:41:31;;;;;;;8.83;5.73;;;;;;;24.99;nan;99374.81;5009812;28;20477;-79
2023/06/02 09:43:57;;;;;;;7.40;6.70;;;;;;;25.12;nan;99358.75;5023993;28;20454;-79
2023/06/02 09:46:23;;;;;;;6.70;5.20;;;;;;;25.15;nan;99363.78;5031516;28;21009;-79
2023/06/02 09:48:56;;;;;;;6.30;5.50;;;;;;;25.21;nan;99362.16;5022866;28;20591;-79
2023/06/02 09:51:25;;;;;;;5.80;4.63;;;;;;;25.17;nan;99361.72;5012689;28;20500;-80
2023/06/02 09:53:51;;;;;;;6.07;5.47;;;;;;;25.06;nan;99354.16;5010780;28;20557;-79
2023/06/02 09:56:22;;;;;;;6.63;4.83;;;;;;;25.18;nan;99360.69;5009711;28;20823;-79
2023/06/02 09:58:48;;;;;;;8.27;5.30;;;;;;;25.39;nan;99360.59;5009969;28;20502;-79
2023/06/02 10:01:15;;;;;;;8.87;5.30;;;;;;;25.64;nan;99352.00;5012362;28;20471;-79
2023/06/02 10:03:42;;;;;;;8.03;5.50;;;;;;;25.78;nan;99358.25;5010448;28;20203;-79
2023/06/02 10:06:26;;;;;;;8.60;5.47;;;;;;;25.86;nan;99355.41;5010404;28;20770;-79
2023/06/02 10:09:08;;;;;;;8.30;5.07;;;;;;;25.92;nan;99356.44;5009754;28;20513;-79
2023/06/02 10:12:28;;;;;;;7.77;5.93;;;;;;;25.87;nan;99356.22;5010006;28;20486;-79
2023/06/02 10:15:14;;;;;;;6.73;5.40;;;;;;;25.88;nan;99349.84;4949743;28;20492;-78
2023/06/02 10:18:16;;;;;;;6.17;5.40;;;;;;;25.82;nan;99346.88;4947886;28;20476;-78
2023/06/02 10:21:07;;;;;;;8.00;6.60;;;;;;;25.87;nan;99349.00;5004585;28;20514;-78
2023/06/02 10:24:17;;;;;;;7.50;5.67;;;;;;;25.86;nan;99343.81;5006683;28;20520;-78
2023/06/02 10:26:55;;;;;;;5.90;4.70;;;;;;;25.93;nan;99333.91;5012146;28;20461;-79
2023/06/02 10:29:24;;;;;;;6.33;5.00;;;;;;;25.92;nan;99334.91;5012499;28;20465;-79
2023/06/02 10:31:50;;;;;;;8.70;5.30;;;;;;;25.86;nan;99341.13;5012176;28;20489;-79
2023/06/02 10:34:36;;;;;;;13.40;5.40;;;;;;;25.95;nan;99345.28;5012322;28;20484;-80
2023/06/02 10:37:04;;;;;;;5.53;5.00;;;;;;;26.05;nan;99345.72;5011512;28;20207;-79
2023/06/02 10:39:39;;;;;;;6.10;5.07;;;;;;;26.07;nan;99340.13;5012454;28;20482;-79
2023/06/02 10:42:09;;;;;;;7.20;5.17;;;;;;;26.17;nan;99330.63;5012241;28;20545;-79
2023/06/02 10:44:34;;;;;;;6.17;4.87;;;;;;;26.24;nan;99336.81;5011973;28;20479;-79
2023/06/02 10:47:18;;;;;;;7.63;4.73;;;;;;;26.24;nan;99331.44;5009867;28;20452;-79
2023/06/02 10:50:00;;;;;;;8.53;5.70;;;;;;;26.29;nan;99321.94;5009465;28;20235;-79
2023/06/02 10:52:27;;;;;;;6.87;4.83;;;;;;;26.38;nan;99326.91;5011114;28;20464;-79
2023/06/02 10:55:07;;;;;;;9.50;6.50;;;;;;;26.50;nan;99324.41;5009814;28;20525;-79
2023/06/02 10:57:56;;;;;;;7.00;5.70;;;;;;;26.54;nan;99320.28;5012195;28;20458;-81
2023/06/02 11:00:52;;;;;;;6.30;4.93;;;;;;;26.44;nan;99330.66;5014851;28;20466;-79
2023/06/02 11:03:17;;;;;;;6.70;4.70;;;;;;;26.40;nan;99324.00;5012159;28;20478;-79
2023/06/02 11:05:45;;;;;;;9.35;6.45;;;;;;;26.38;nan;99321.53;5013425;28;20483;-79
2023/06/02 11:08:21;;;;;;;10.80;5.57;;;;;;;26.33;nan;99318.63;5013287;28;20227;-79
2023/06/02 11:10:58;;;;;;;7.37;5.73;;;;;;;26.31;nan;99312.63;5015251;28;20487;-80
2023/06/02 11:13:25;;;;;;;6.73;5.40;;;;;;;26.31;nan;99315.31;5014621;28;20489;-79
2023/06/02 11:15:59;;;;;;;9.10;6.10;;;;;;;26.28;nan;99313.03;5012175;28;20473;-79
2023/06/02 11:18:33;;;;;;;7.60;5.30;;;;;;;26.30;nan;99312.81;5014582;28;20986;-80
2023/06/02 11:21:00;;;;;;;12.00;5.00;;;;;;;26.34;nan;99297.91;5012007;28;20628;-79
2023/06/02 11:23:26;;;;;;;6.90;4.40;;;;;;;26.26;nan;99307.03;5014338;28;20481;-79
2023/06/02 11:26:00;;;;;;;9.13;6.13;;;;;;;26.34;nan;99303.28;5011196;28;20486;-79
2023/06/02 11:28:27;;;;;;;5.30;4.67;;;;;;;26.32;nan;99291.91;5011791;28;20497;-79
2023/06/02 11:31:08;;;;;;;6.73;5.03;;;;;;;26.07;nan;99297.91;5013785;28;20459;-79
2023/06/02 11:33:37;;;;;;;10.40;5.60;;;;;;;26.17;nan;99295.63;5011751;28;20451;-79
2023/06/02 11:36:03;;;;;;;6.63;4.90;;;;;;;26.18;nan;99293.75;5012921;28;20453;-79
2023/06/02 11:38:32;;;;;;;5.27;4.63;;;;;;;26.29;nan;99295.00;5011773;28;20577;-80
2023/06/02 11:41:12;;;;;;;7.73;6.33;;;;;;;26.47;nan;99290.66;5013102;28;20455;-79
2023/06/02 11:43:39;;;;;;;5.33;4.93;;;;;;;26.49;nan;99293.13;5010647;28;20473;-80
2023/06/02 11:46:09;;;;;;;5.67;4.83;;;;;;;26.48;nan;99283.41;5012940;28;20577;-80
2023/06/02 11:48:40;;;;;;;5.30;4.80;;;;;;;26.44;nan;99288.38;5011795;28;21246;-79
2023/06/02 11:51:06;;;;;;;5.83;5.17;;;;;;;26.51;nan;99283.00;5011918;28;20463;-79
2023/06/02 11:53:32;;;;;;;5.60;4.83;;;;;;;26.55;nan;99281.56;5012205;28;20965;-79